sensor_id;sensor_type;location;lat;lon;timestamp;P1;durP1;ratioP1;P2;durP2;ratioP2
21657;SDS011;10990;48.174;9.782;2023-04-25T00:01:17;2.13;;;1.70;;
21657;SDS011;10990;48.174;9.782;2023-04-25T00:03:45;2.27;;;1.70;;
21657;SDS011;10990;48.174;9.782;2023-04-25T00:06:12;2.87;;;1.90;;
21657;SDS011;10990;48.174;9.782;2023-04-25T00:08:39;2.40;;;1.90;;
21657;SDS011;10990;48.174;9.782;2023-04-25T00:11:06;4.00;;;1.90;;
21657;SDS011;10990;48.174;9.782;2023-04-25T00:13:33;3.53;;;2.10;;
21657;SDS011;10990;48.174;9.782;2023-04-25T00:16:00;2.33;;;1.70;;
21657;SDS011;10990;48.174;9.782;2023-04-25T00:18:27;2.70;;;1.80;;
21657;SDS011;10990;48.174;9.782;2023-04-25T00:20:56;2.73;;;1.80;;
21657;SDS011;10990;48.174;9.782;2023-04-25T00:23:22;3.03;;;2.00;;
21657;SDS011;10990;48.174;9.782;2023-04-25T00:25:49;2.57;;;1.83;;
21657;SDS011;10990;48.174;9.782;2023-04-25T00:28:17;4.73;;;2.00;;
21657;SDS011;10990;48.174;9.782;2023-04-25T00:30:43;2.93;;;1.87;;
21657;SDS011;10990;48.174;9.782;2023-04-25T00:33:10;3.40;;;1.90;;
21657;SDS011;10990;48.174;9.782;2023-04-25T00:35:37;3.83;;;1.90;;
21657;SDS011;10990;48.174;9.782;2023-04-25T00:38:06;3.77;;;2.20;;
21657;SDS011;10990;48.174;9.782;2023-04-25T00:40:32;4.20;;;2.10;;
21657;SDS011;10990;48.174;9.782;2023-04-25T00:42:59;4.60;;;2.30;;
21657;SDS011;10990;48.174;9.782;2023-04-25T00:45:27;3.63;;;2.40;;
21657;SDS011;10990;48.174;9.782;2023-04-25T00:47:55;5.67;;;2.30;;
21657;SDS011;10990;48.174;9.782;2023-04-25T00:50:23;2.87;;;2.20;;
21657;SDS011;10990;48.174;9.782;2023-04-25T00:52:50;3.43;;;2.37;;
21657;SDS011;10990;48.174;9.782;2023-04-25T00:55:19;5.00;;;2.30;;
21657;SDS011;10990;48.174;9.782;2023-04-25T00:57:46;4.37;;;2.27;;
21657;SDS011;10990;48.174;9.782;2023-04-25T01:00:13;3.60;;;2.60;;
21657;SDS011;10990;48.174;9.782;2023-04-25T01:02:41;4.23;;;2.30;;
21657;SDS011;10990;48.174;9.782;2023-04-25T01:05:08;4.30;;;2.20;;
21657;SDS011;10990;48.174;9.782;2023-04-25T01:07:35;6.53;;;2.50;;
21657;SDS011;10990;48.174;9.782;2023-04-25T01:10:02;4.63;;;2.30;;
21657;SDS011;10990;48.174;9.782;2023-04-25T01:12:32;2.90;;;1.90;;
21657;SDS011;10990;48.174;9.782;2023-04-25T01:14:59;3.17;;;1.77;;
21657;SDS011;10990;48.174;9.782;2023-04-25T01:17:26;3.43;;;1.70;;
21657;SDS011;10990;48.174;9.782;2023-04-25T01:19:54;3.53;;;1.90;;
21657;SDS011;10990;48.174;9.782;2023-04-25T01:22:22;3.93;;;1.80;;
21657;SDS011;10990;48.174;9.782;2023-04-25T01:24:50;5.13;;;1.70;;
21657;SDS011;10990;48.174;9.782;2023-04-25T01:27:17;2.07;;;1.60;;
21657;SDS011;10990;48.174;9.782;2023-04-25T01:29:46;5.40;;;1.90;;
21657;SDS011;10990;48.174;9.782;2023-04-25T01:32:13;2.10;;;1.53;;
21657;SDS011;10990;48.174;9.782;2023-04-25T01:34:40;3.20;;;1.70;;
21657;SDS011;10990;48.174;9.782;2023-04-25T01:37:07;2.40;;;1.63;;
21657;SDS011;10990;48.174;9.782;2023-04-25T01:39:35;3.70;;;1.70;;
21657;SDS011;10990;48.174;9.782;2023-04-25T01:42:02;4.80;;;2.00;;
21657;SDS011;10990;48.174;9.782;2023-04-25T01:44:30;2.83;;;1.73;;
21657;SDS011;10990;48.174;9.782;2023-04-25T01:46:56;2.03;;;1.70;;
21657;SDS011;10990;48.174;9.782;2023-04-25T01:49:25;3.47;;;1.80;;
21657;SDS011;10990;48.174;9.782;2023-04-25T01:51:51;4.30;;;2.10;;
21657;SDS011;10990;48.174;9.782;2023-04-25T01:54:19;3.20;;;1.90;;
21657;SDS011;10990;48.174;9.782;2023-04-25T01:56:51;3.73;;;1.80;;
21657;SDS011;10990;48.174;9.782;2023-04-25T01:59:19;4.13;;;1.60;;
21657;SDS011;10990;48.174;9.782;2023-04-25T02:02:05;4.37;;;2.00;;
21657;SDS011;10990;48.174;9.782;2023-04-25T02:04:34;3.97;;;1.87;;
21657;SDS011;10990;48.174;9.782;2023-04-25T02:07:01;4.17;;;1.80;;
21657;SDS011;10990;48.174;9.782;2023-04-25T02:09:55;3.33;;;1.53;;
21657;SDS011;10990;48.174;9.782;2023-04-25T02:12:24;3.37;;;1.80;;
21657;SDS011;10990;48.174;9.782;2023-04-25T02:15:12;4.23;;;1.93;;
21657;SDS011;10990;48.174;9.782;2023-04-25T02:17:43;3.87;;;1.70;;
21657;SDS011;10990;48.174;9.782;2023-04-25T02:20:10;3.13;;;1.80;;
21657;SDS011;10990;48.174;9.782;2023-04-25T02:22:38;4.77;;;1.77;;
21657;SDS011;10990;48.174;9.782;2023-04-25T02:25:06;2.90;;;1.93;;
21657;SDS011;10990;48.174;9.782;2023-04-25T02:27:34;3.63;;;1.80;;
21657;SDS011;10990;48.174;9.782;2023-04-25T02:30:01;2.27;;;1.73;;
21657;SDS011;10990;48.174;9.782;2023-04-25T02:32:32;6.57;;;2.17;;
21657;SDS011;10990;48.174;9.782;2023-04-25T02:35:01;4.77;;;1.80;;
21657;SDS011;10990;48.174;9.782;2023-04-25T02:37:29;3.77;;;1.80;;
21657;SDS011;10990;48.174;9.782;2023-04-25T02:39:56;4.07;;;1.90;;
21657;SDS011;10990;48.174;9.782;2023-04-25T02:42:23;3.37;;;1.87;;
21657;SDS011;10990;48.174;9.782;2023-04-25T02:44:51;4.30;;;1.97;;
21657;SDS011;10990;48.174;9.782;2023-04-25T02:47:19;4.40;;;1.87;;
21657;SDS011;10990;48.174;9.782;2023-04-25T02:49:48;4.03;;;1.90;;
21657;SDS011;10990;48.174;9.782;2023-04-25T02:52:15;5.30;;;1.83;;
21657;SDS011;10990;48.174;9.782;2023-04-25T02:54:46;3.57;;;2.10;;
21657;SDS011;10990;48.174;9.782;2023-04-25T02:57:13;3.00;;;1.70;;
21657;SDS011;10990;48.174;9.782;2023-04-25T02:59:39;3.40;;;1.60;;
21657;SDS011;10990;48.174;9.782;2023-04-25T03:02:08;3.17;;;1.60;;
21657;SDS011;10990;48.174;9.782;2023-04-25T03:04:35;3.00;;;1.60;;
21657;SDS011;10990;48.174;9.782;2023-04-25T03:07:02;4.93;;;1.70;;
21657;SDS011;10990;48.174;9.782;2023-04-25T03:09:29;3.53;;;1.60;;
21657;SDS011;10990;48.174;9.782;2023-04-25T03:11:56;2.87;;;2.00;;
21657;SDS011;10990;48.174;9.782;2023-04-25T03:14:23;3.30;;;1.97;;
21657;SDS011;10990;48.174;9.782;2023-04-25T03:16:49;2.83;;;2.00;;
21657;SDS011;10990;48.174;9.782;2023-04-25T03:19:18;3.43;;;2.10;;
21657;SDS011;10990;48.174;9.782;2023-04-25T03:21:46;3.93;;;2.10;;
21657;SDS011;10990;48.174;9.782;2023-04-25T03:24:13;3.10;;;2.13;;
21657;SDS011;10990;48.174;9.782;2023-04-25T03:26:40;5.13;;;2.00;;
21657;SDS011;10990;48.174;9.782;2023-04-25T03:29:07;3.70;;;1.97;;
21657;SDS011;10990;48.174;9.782;2023-04-25T03:31:35;3.53;;;1.90;;
21657;SDS011;10990;48.174;9.782;2023-04-25T03:34:02;5.23;;;1.90;;
21657;SDS011;10990;48.174;9.782;2023-04-25T03:36:30;5.03;;;1.90;;
21657;SDS011;10990;48.174;9.782;2023-04-25T03:38:58;3.00;;;1.67;;
21657;SDS011;10990;48.174;9.782;2023-04-25T03:41:26;5.53;;;2.07;;
21657;SDS011;10990;48.174;9.782;2023-04-25T03:43:59;3.17;;;1.80;;
21657;SDS011;10990;48.174;9.782;2023-04-25T03:46:26;4.47;;;2.07;;
21657;SDS011;10990;48.174;9.782;2023-04-25T03:48:53;4.03;;;2.10;;
21657;SDS011;10990;48.174;9.782;2023-04-25T03:51:25;3.50;;;1.77;;
21657;SDS011;10990;48.174;9.782;2023-04-25T03:53:53;4.23;;;1.90;;
21657;SDS011;10990;48.174;9.782;2023-04-25T03:56:40;3.90;;;2.10;;
21657;SDS011;10990;48.174;9.782;2023-04-25T03:59:16;3.57;;;1.73;;
21657;SDS011;10990;48.174;9.782;2023-04-25T04:01:44;2.63;;;1.97;;
21657;SDS011;10990;48.174;9.782;2023-04-25T04:04:10;3.93;;;2.07;;
21657;SDS011;10990;48.174;9.782;2023-04-25T04:06:37;4.90;;;2.07;;
21657;SDS011;10990;48.174;9.782;2023-04-25T04:09:25;3.30;;;1.90;;
21657;SDS011;10990;48.174;9.782;2023-04-25T04:11:53;2.77;;;2.00;;
21657;SDS011;10990;48.174;9.782;2023-04-25T04:14:20;4.17;;;2.10;;
21657;SDS011;10990;48.174;9.782;2023-04-25T04:16:48;4.60;;;1.93;;
21657;SDS011;10990;48.174;9.782;2023-04-25T04:19:17;4.33;;;1.77;;
21657;SDS011;10990;48.174;9.782;2023-04-25T04:21:51;4.60;;;2.10;;
21657;SDS011;10990;48.174;9.782;2023-04-25T04:24:18;2.83;;;1.80;;
21657;SDS011;10990;48.174;9.782;2023-04-25T04:27:06;2.87;;;1.70;;
21657;SDS011;10990;48.174;9.782;2023-04-25T04:29:59;3.30;;;1.83;;
21657;SDS011;10990;48.174;9.782;2023-04-25T04:32:33;3.33;;;1.70;;
21657;SDS011;10990;48.174;9.782;2023-04-25T04:35:03;5.23;;;2.27;;
21657;SDS011;10990;48.174;9.782;2023-04-25T04:37:32;3.10;;;1.60;;
21657;SDS011;10990;48.174;9.782;2023-04-25T04:40:00;2.60;;;1.60;;
21657;SDS011;10990;48.174;9.782;2023-04-25T04:42:52;3.10;;;1.70;;
21657;SDS011;10990;48.174;9.782;2023-04-25T04:45:27;2.43;;;1.57;;
21657;SDS011;10990;48.174;9.782;2023-04-25T04:48:09;2.07;;;1.50;;
21657;SDS011;10990;48.174;9.782;2023-04-25T04:50:46;3.50;;;1.57;;
21657;SDS011;10990;48.174;9.782;2023-04-25T04:53:24;1.83;;;1.50;;
21657;SDS011;10990;48.174;9.782;2023-04-25T04:55:54;3.43;;;1.60;;
21657;SDS011;10990;48.174;9.782;2023-04-25T04:58:41;2.37;;;1.43;;
21657;SDS011;10990;48.174;9.782;2023-04-25T05:01:27;4.00;;;1.70;;
21657;SDS011;10990;48.174;9.782;2023-04-25T05:04:21;3.70;;;1.40;;
21657;SDS011;10990;48.174;9.782;2023-04-25T05:07:26;1.70;;;1.10;;
21657;SDS011;10990;48.174;9.782;2023-04-25T05:10:22;5.00;;;1.50;;
21657;SDS011;10990;48.174;9.782;2023-04-25T05:13:14;4.10;;;1.50;;
21657;SDS011;10990;48.174;9.782;2023-04-25T05:15:51;3.90;;;1.77;;
21657;SDS011;10990;48.174;9.782;2023-04-25T05:18:32;2.97;;;1.57;;
21657;SDS011;10990;48.174;9.782;2023-04-25T05:21:05;6.20;;;1.53;;
21657;SDS011;10990;48.174;9.782;2023-04-25T05:23:44;3.97;;;1.60;;
21657;SDS011;10990;48.174;9.782;2023-04-25T05:26:34;3.43;;;1.50;;
21657;SDS011;10990;48.174;9.782;2023-04-25T05:29:25;3.83;;;1.53;;
21657;SDS011;10990;48.174;9.782;2023-04-25T05:32:13;2.93;;;1.67;;
21657;SDS011;10990;48.174;9.782;2023-04-25T05:34:40;2.90;;;1.60;;
21657;SDS011;10990;48.174;9.782;2023-04-25T05:37:16;2.77;;;1.70;;
21657;SDS011;10990;48.174;9.782;2023-04-25T05:39:54;4.50;;;1.70;;
21657;SDS011;10990;48.174;9.782;2023-04-25T05:42:44;3.40;;;1.83;;
21657;SDS011;10990;48.174;9.782;2023-04-25T05:45:26;3.23;;;2.10;;
21657;SDS011;10990;48.174;9.782;2023-04-25T05:47:54;3.63;;;2.03;;
21657;SDS011;10990;48.174;9.782;2023-04-25T05:50:31;3.97;;;2.00;;
21657;SDS011;10990;48.174;9.782;2023-04-25T05:53:02;5.10;;;1.80;;
21657;SDS011;10990;48.174;9.782;2023-04-25T05:55:38;4.40;;;2.07;;
21657;SDS011;10990;48.174;9.782;2023-04-25T05:58:25;4.53;;;1.93;;
21657;SDS011;10990;48.174;9.782;2023-04-25T06:00:53;4.60;;;1.60;;
21657;SDS011;10990;48.174;9.782;2023-04-25T06:03:21;5.20;;;2.23;;
21657;SDS011;10990;48.174;9.782;2023-04-25T06:05:49;2.77;;;1.80;;
21657;SDS011;10990;48.174;9.782;2023-04-25T06:08:16;5.10;;;1.97;;
21657;SDS011;10990;48.174;9.782;2023-04-25T06:10:42;4.80;;;2.05;;
21657;SDS011;10990;48.174;9.782;2023-04-25T06:13:10;7.93;;;2.00;;
21657;SDS011;10990;48.174;9.782;2023-04-25T06:15:36;4.55;;;1.70;;
21657;SDS011;10990;48.174;9.782;2023-04-25T06:18:03;2.58;;;1.90;;
21657;SDS011;10990;48.174;9.782;2023-04-25T06:20:32;3.72;;;1.70;;
21657;SDS011;10990;48.174;9.782;2023-04-25T06:23:00;2.78;;;1.77;;
21657;SDS011;10990;48.174;9.782;2023-04-25T06:25:37;3.75;;;1.63;;
21657;SDS011;10990;48.174;9.782;2023-04-25T06:28:04;4.38;;;1.85;;
21657;SDS011;10990;48.174;9.782;2023-04-25T06:30:31;3.05;;;1.77;;
21657;SDS011;10990;48.174;9.782;2023-04-25T06:33:04;3.95;;;1.90;;
21657;SDS011;10990;48.174;9.782;2023-04-25T06:35:32;2.78;;;1.73;;
21657;SDS011;10990;48.174;9.782;2023-04-25T06:38:00;5.28;;;2.00;;
21657;SDS011;10990;48.174;9.782;2023-04-25T06:40:28;4.95;;;1.80;;
21657;SDS011;10990;48.174;9.782;2023-04-25T06:42:55;4.28;;;1.70;;
21657;SDS011;10990;48.174;9.782;2023-04-25T06:45:36;5.13;;;1.92;;
21657;SDS011;10990;48.174;9.782;2023-04-25T06:48:02;2.60;;;1.65;;
21657;SDS011;10990;48.174;9.782;2023-04-25T06:50:30;3.60;;;1.60;;
21657;SDS011;10990;48.174;9.782;2023-04-25T06:52:58;5.15;;;1.60;;
21657;SDS011;10990;48.174;9.782;2023-04-25T06:55:28;2.92;;;1.80;;
21657;SDS011;10990;48.174;9.782;2023-04-25T06:58:15;3.28;;;1.85;;
21657;SDS011;10990;48.174;9.782;2023-04-25T07:01:17;4.00;;;1.60;;
21657;SDS011;10990;48.174;9.782;2023-04-25T07:03:44;3.55;;;1.60;;
21657;SDS011;10990;48.174;9.782;2023-04-25T07:06:16;4.10;;;1.75;;
21657;SDS011;10990;48.174;9.782;2023-04-25T07:08:44;4.53;;;1.85;;
21657;SDS011;10990;48.174;9.782;2023-04-25T07:11:11;5.18;;;1.88;;
21657;SDS011;10990;48.174;9.782;2023-04-25T07:13:38;3.03;;;1.70;;
21657;SDS011;10990;48.174;9.782;2023-04-25T07:16:05;4.05;;;1.65;;
21657;SDS011;10990;48.174;9.782;2023-04-25T07:18:34;3.58;;;1.58;;
21657;SDS011;10990;48.174;9.782;2023-04-25T07:21:01;3.45;;;1.63;;
21657;SDS011;10990;48.174;9.782;2023-04-25T07:23:30;2.97;;;1.67;;
21657;SDS011;10990;48.174;9.782;2023-04-25T07:26:01;3.78;;;1.75;;
21657;SDS011;10990;48.174;9.782;2023-04-25T07:28:29;3.13;;;1.58;;
21657;SDS011;10990;48.174;9.782;2023-04-25T07:30:55;4.75;;;1.80;;
21657;SDS011;10990;48.174;9.782;2023-04-25T07:33:24;3.97;;;2.05;;
21657;SDS011;10990;48.174;9.782;2023-04-25T07:35:51;3.92;;;1.90;;
21657;SDS011;10990;48.174;9.782;2023-04-25T07:38:19;1.80;;;1.40;;
21657;SDS011;10990;48.174;9.782;2023-04-25T07:40:47;2.58;;;1.60;;
21657;SDS011;10990;48.174;9.782;2023-04-25T07:43:16;2.83;;;1.80;;
21657;SDS011;10990;48.174;9.782;2023-04-25T07:45:58;3.83;;;1.70;;
21657;SDS011;10990;48.174;9.782;2023-04-25T07:48:27;4.60;;;1.98;;
21657;SDS011;10990;48.174;9.782;2023-04-25T07:50:53;4.97;;;1.92;;
21657;SDS011;10990;48.174;9.782;2023-04-25T07:53:20;4.60;;;1.80;;
21657;SDS011;10990;48.174;9.782;2023-04-25T07:55:54;3.72;;;1.80;;
21657;SDS011;10990;48.174;9.782;2023-04-25T07:58:23;2.67;;;1.80;;
21657;SDS011;10990;48.174;9.782;2023-04-25T08:00:55;3.03;;;1.60;;
21657;SDS011;10990;48.174;9.782;2023-04-25T08:03:34;4.18;;;1.80;;
21657;SDS011;10990;48.174;9.782;2023-04-25T08:06:04;5.32;;;2.15;;
21657;SDS011;10990;48.174;9.782;2023-04-25T08:08:37;2.20;;;1.65;;
21657;SDS011;10990;48.174;9.782;2023-04-25T08:11:05;4.85;;;1.80;;
21657;SDS011;10990;48.174;9.782;2023-04-25T08:13:33;6.93;;;2.50;;
21657;SDS011;10990;48.174;9.782;2023-04-25T08:16:00;4.15;;;1.90;;
21657;SDS011;10990;48.174;9.782;2023-04-25T08:18:28;4.07;;;1.73;;
21657;SDS011;10990;48.174;9.782;2023-04-25T08:20:56;3.85;;;1.85;;
21657;SDS011;10990;48.174;9.782;2023-04-25T08:23:24;3.42;;;2.03;;
21657;SDS011;10990;48.174;9.782;2023-04-25T08:25:58;4.70;;;2.15;;
21657;SDS011;10990;48.174;9.782;2023-04-25T08:28:26;2.22;;;1.63;;
21657;SDS011;10990;48.174;9.782;2023-04-25T08:30:55;3.20;;;1.70;;
21657;SDS011;10990;48.174;9.782;2023-04-25T08:33:31;4.35;;;1.90;;
21657;SDS011;10990;48.174;9.782;2023-04-25T08:36:11;3.13;;;1.73;;
21657;SDS011;10990;48.174;9.782;2023-04-25T08:38:38;4.68;;;1.70;;
21657;SDS011;10990;48.174;9.782;2023-04-25T08:41:07;4.15;;;1.98;;
21657;SDS011;10990;48.174;9.782;2023-04-25T08:43:37;2.85;;;1.73;;
21657;SDS011;10990;48.174;9.782;2023-04-25T08:46:09;3.65;;;1.98;;
21657;SDS011;10990;48.174;9.782;2023-04-25T08:49:04;3.90;;;1.67;;
21657;SDS011;10990;48.174;9.782;2023-04-25T08:51:31;3.28;;;1.77;;
21657;SDS011;10990;48.174;9.782;2023-04-25T08:54:03;3.17;;;1.73;;
21657;SDS011;10990;48.174;9.782;2023-04-25T08:56:35;2.25;;;1.75;;
21657;SDS011;10990;48.174;9.782;2023-04-25T08:59:04;2.85;;;1.67;;
21657;SDS011;10990;48.174;9.782;2023-04-25T09:01:35;4.10;;;1.60;;
21657;SDS011;10990;48.174;9.782;2023-04-25T09:04:02;6.15;;;2.05;;
21657;SDS011;10990;48.174;9.782;2023-04-25T09:06:30;4.25;;;1.92;;
21657;SDS011;10990;48.174;9.782;2023-04-25T09:09:00;5.22;;;2.00;;
21657;SDS011;10990;48.174;9.782;2023-04-25T09:11:29;3.65;;;2.08;;
21657;SDS011;10990;48.174;9.782;2023-04-25T09:14:09;3.28;;;2.20;;
21657;SDS011;10990;48.174;9.782;2023-04-25T09:17:01;4.60;;;1.85;;
21657;SDS011;10990;48.174;9.782;2023-04-25T09:19:41;5.28;;;1.70;;
21657;SDS011;10990;48.174;9.782;2023-04-25T09:22:16;4.70;;;1.95;;
21657;SDS011;10990;48.174;9.782;2023-04-25T09:24:46;3.95;;;1.80;;
21657;SDS011;10990;48.174;9.782;2023-04-25T09:27:18;2.55;;;1.40;;
21657;SDS011;10990;48.174;9.782;2023-04-25T09:29:56;4.22;;;1.40;;
21657;SDS011;10990;48.174;9.782;2023-04-25T09:32:26;1.70;;;1.15;;
21657;SDS011;10990;48.174;9.782;2023-04-25T09:34:55;2.83;;;1.20;;
21657;SDS011;10990;48.174;9.782;2023-04-25T09:37:25;1.40;;;1.10;;
21657;SDS011;10990;48.174;9.782;2023-04-25T09:40:11;3.15;;;1.35;;
21657;SDS011;10990;48.174;9.782;2023-04-25T09:42:50;2.58;;;1.40;;
21657;SDS011;10990;48.174;9.782;2023-04-25T09:45:17;3.65;;;1.35;;
21657;SDS011;10990;48.174;9.782;2023-04-25T09:47:45;1.48;;;1.33;;
21657;SDS011;10990;48.174;9.782;2023-04-25T09:50:15;2.50;;;1.20;;
21657;SDS011;10990;48.174;9.782;2023-04-25T09:52:50;1.53;;;1.03;;
21657;SDS011;10990;48.174;9.782;2023-04-25T09:55:32;1.57;;;0.90;;
21657;SDS011;10990;48.174;9.782;2023-04-25T09:58:03;0.90;;;0.80;;
21657;SDS011;10990;48.174;9.782;2023-04-25T10:00:32;0.73;;;0.55;;
21657;SDS011;10990;48.174;9.782;2023-04-25T10:03:09;0.53;;;0.53;;
21657;SDS011;10990;48.174;9.782;2023-04-25T10:06:02;0.70;;;0.60;;
21657;SDS011;10990;48.174;9.782;2023-04-25T10:08:32;0.60;;;0.60;;
21657;SDS011;10990;48.174;9.782;2023-04-25T10:11:00;0.50;;;0.50;;
21657;SDS011;10990;48.174;9.782;2023-04-25T10:13:28;1.50;;;0.70;;
21657;SDS011;10990;48.174;9.782;2023-04-25T10:15:56;0.43;;;0.43;;
21657;SDS011;10990;48.174;9.782;2023-04-25T10:18:26;0.40;;;0.40;;
21657;SDS011;10990;48.174;9.782;2023-04-25T10:20:53;0.50;;;0.50;;
21657;SDS011;10990;48.174;9.782;2023-04-25T10:23:21;0.68;;;0.40;;
21657;SDS011;10990;48.174;9.782;2023-04-25T10:25:49;0.40;;;0.40;;
21657;SDS011;10990;48.174;9.782;2023-04-25T10:28:17;1.30;;;0.77;;
21657;SDS011;10990;48.174;9.782;2023-04-25T10:30:56;0.57;;;0.57;;
21657;SDS011;10990;48.174;9.782;2023-04-25T10:33:30;0.60;;;0.60;;
21657;SDS011;10990;48.174;9.782;2023-04-25T10:36:08;2.60;;;0.63;;
21657;SDS011;10990;48.174;9.782;2023-04-25T10:38:35;1.33;;;0.40;;
21657;SDS011;10990;48.174;9.782;2023-04-25T10:41:03;0.60;;;0.60;;
21657;SDS011;10990;48.174;9.782;2023-04-25T10:43:38;0.53;;;0.47;;
21657;SDS011;10990;48.174;9.782;2023-04-25T10:46:16;0.60;;;0.60;;
21657;SDS011;10990;48.174;9.782;2023-04-25T10:48:49;0.60;;;0.60;;
21657;SDS011;10990;48.174;9.782;2023-04-25T10:51:18;0.60;;;0.60;;
21657;SDS011;10990;48.174;9.782;2023-04-25T10:53:46;0.52;;;0.52;;
21657;SDS011;10990;48.174;9.782;2023-04-25T10:56:17;0.60;;;0.60;;
21657;SDS011;10990;48.174;9.782;2023-04-25T10:58:45;0.70;;;0.70;;
21657;SDS011;10990;48.174;9.782;2023-04-25T11:01:12;0.70;;;0.70;;
21657;SDS011;10990;48.174;9.782;2023-04-25T11:03:40;1.33;;;0.77;;
21657;SDS011;10990;48.174;9.782;2023-04-25T11:06:15;1.00;;;0.90;;
21657;SDS011;10990;48.174;9.782;2023-04-25T11:08:49;1.00;;;0.90;;
21657;SDS011;10990;48.174;9.782;2023-04-25T11:11:17;0.80;;;0.80;;
21657;SDS011;10990;48.174;9.782;2023-04-25T11:13:44;0.97;;;0.90;;
21657;SDS011;10990;48.174;9.782;2023-04-25T11:16:14;0.77;;;0.73;;
21657;SDS011;10990;48.174;9.782;2023-04-25T11:18:41;1.13;;;0.60;;
21657;SDS011;10990;48.174;9.782;2023-04-25T11:21:10;1.03;;;0.53;;
21657;SDS011;10990;48.174;9.782;2023-04-25T11:23:37;0.30;;;0.30;;
21657;SDS011;10990;48.174;9.782;2023-04-25T11:26:04;0.40;;;0.40;;
21657;SDS011;10990;48.174;9.782;2023-04-25T11:28:30;0.20;;;0.20;;
21657;SDS011;10990;48.174;9.782;2023-04-25T11:30:57;0.93;;;0.40;;
21657;SDS011;10990;48.174;9.782;2023-04-25T11:33:24;0.47;;;0.30;;
21657;SDS011;10990;48.174;9.782;2023-04-25T11:35:52;0.52;;;0.20;;
21657;SDS011;10990;48.174;9.782;2023-04-25T11:38:22;0.20;;;0.20;;
21657;SDS011;10990;48.174;9.782;2023-04-25T11:40:49;0.30;;;0.30;;
21657;SDS011;10990;48.174;9.782;2023-04-25T11:43:17;0.27;;;0.27;;
21657;SDS011;10990;48.174;9.782;2023-04-25T11:45:45;0.38;;;0.35;;
21657;SDS011;10990;48.174;9.782;2023-04-25T11:48:13;0.40;;;0.30;;
21657;SDS011;10990;48.174;9.782;2023-04-25T11:50:39;0.20;;;0.20;;
21657;SDS011;10990;48.174;9.782;2023-04-25T11:53:06;0.30;;;0.30;;
21657;SDS011;10990;48.174;9.782;2023-04-25T11:55:35;0.20;;;0.20;;
21657;SDS011;10990;48.174;9.782;2023-04-25T11:58:02;0.30;;;0.30;;
21657;SDS011;10990;48.174;9.782;2023-04-25T12:00:30;0.30;;;0.27;;
21657;SDS011;10990;48.174;9.782;2023-04-25T12:02:57;0.25;;;0.25;;
21657;SDS011;10990;48.174;9.782;2023-04-25T12:05:25;0.10;;;0.10;;
21657;SDS011;10990;48.174;9.782;2023-04-25T12:07:53;0.33;;;0.20;;
21657;SDS011;10990;48.174;9.782;2023-04-25T12:10:20;0.22;;;0.22;;
21657;SDS011;10990;48.174;9.782;2023-04-25T12:12:48;0.30;;;0.30;;
21657;SDS011;10990;48.174;9.782;2023-04-25T12:15:15;0.20;;;0.20;;
21657;SDS011;10990;48.174;9.782;2023-04-25T12:17:44;1.17;;;0.40;;
21657;SDS011;10990;48.174;9.782;2023-04-25T12:20:13;0.10;;;0.10;;
21657;SDS011;10990;48.174;9.782;2023-04-25T12:22:41;0.17;;;0.17;;
21657;SDS011;10990;48.174;9.782;2023-04-25T12:25:10;0.67;;;0.67;;
21657;SDS011;10990;48.174;9.782;2023-04-25T12:27:38;4.37;;;3.07;;
21657;SDS011;10990;48.174;9.782;2023-04-25T12:30:09;2.90;;;1.98;;
21657;SDS011;10990;48.174;9.782;2023-04-25T12:32:36;1.20;;;1.10;;
21657;SDS011;10990;48.174;9.782;2023-04-25T12:35:04;0.47;;;0.47;;
21657;SDS011;10990;48.174;9.782;2023-04-25T12:37:31;1.35;;;1.25;;
21657;SDS011;10990;48.174;9.782;2023-04-25T12:39:58;1.83;;;1.50;;
21657;SDS011;10990;48.174;9.782;2023-04-25T12:42:25;0.40;;;0.40;;
21657;SDS011;10990;48.174;9.782;2023-04-25T12:44:51;0.30;;;0.30;;
21657;SDS011;10990;48.174;9.782;2023-04-25T12:47:20;0.43;;;0.43;;
21657;SDS011;10990;48.174;9.782;2023-04-25T12:49:46;0.63;;;0.63;;
21657;SDS011;10990;48.174;9.782;2023-04-25T12:52:13;0.30;;;0.30;;
21657;SDS011;10990;48.174;9.782;2023-04-25T12:54:40;0.35;;;0.35;;
21657;SDS011;10990;48.174;9.782;2023-04-25T12:57:07;0.53;;;0.50;;
21657;SDS011;10990;48.174;9.782;2023-04-25T12:59:34;0.10;;;0.10;;
21657;SDS011;10990;48.174;9.782;2023-04-25T13:02:00;0.20;;;0.20;;
21657;SDS011;10990;48.174;9.782;2023-04-25T13:04:29;0.60;;;0.60;;
21657;SDS011;10990;48.174;9.782;2023-04-25T13:06:56;0.43;;;0.43;;
21657;SDS011;10990;48.174;9.782;2023-04-25T13:09:22;0.40;;;0.40;;
21657;SDS011;10990;48.174;9.782;2023-04-25T13:11:49;0.60;;;0.60;;
21657;SDS011;10990;48.174;9.782;2023-04-25T13:14:16;0.60;;;0.60;;
21657;SDS011;10990;48.174;9.782;2023-04-25T13:16:43;0.40;;;0.40;;
21657;SDS011;10990;48.174;9.782;2023-04-25T13:19:10;0.40;;;0.40;;
21657;SDS011;10990;48.174;9.782;2023-04-25T13:21:39;0.30;;;0.30;;
21657;SDS011;10990;48.174;9.782;2023-04-25T13:24:06;0.30;;;0.30;;
21657;SDS011;10990;48.174;9.782;2023-04-25T13:26:33;0.50;;;0.20;;
21657;SDS011;10990;48.174;9.782;2023-04-25T13:28:59;0.20;;;0.20;;
21657;SDS011;10990;48.174;9.782;2023-04-25T13:31:28;0.40;;;0.40;;
21657;SDS011;10990;48.174;9.782;2023-04-25T13:33:55;0.20;;;0.20;;
21657;SDS011;10990;48.174;9.782;2023-04-25T13:36:22;0.20;;;0.20;;
21657;SDS011;10990;48.174;9.782;2023-04-25T13:38:50;0.30;;;0.30;;
21657;SDS011;10990;48.174;9.782;2023-04-25T13:41:17;0.20;;;0.20;;
21657;SDS011;10990;48.174;9.782;2023-04-25T13:43:45;0.75;;;0.32;;
21657;SDS011;10990;48.174;9.782;2023-04-25T13:46:13;0.30;;;0.30;;
21657;SDS011;10990;48.174;9.782;2023-04-25T13:48:40;0.30;;;0.30;;
21657;SDS011;10990;48.174;9.782;2023-04-25T13:51:13;0.30;;;0.30;;
21657;SDS011;10990;48.174;9.782;2023-04-25T13:53:40;1.88;;;0.40;;
21657;SDS011;10990;48.174;9.782;2023-04-25T13:56:09;0.28;;;0.28;;
21657;SDS011;10990;48.174;9.782;2023-04-25T13:58:37;0.20;;;0.20;;
21657;SDS011;10990;48.174;9.782;2023-04-25T14:01:04;0.20;;;0.20;;
21657;SDS011;10990;48.174;9.782;2023-04-25T14:03:31;0.13;;;0.13;;
21657;SDS011;10990;48.174;9.782;2023-04-25T14:05:57;0.20;;;0.20;;
21657;SDS011;10990;48.174;9.782;2023-04-25T14:08:24;0.20;;;0.20;;
21657;SDS011;10990;48.174;9.782;2023-04-25T14:10:51;1.65;;;0.40;;
21657;SDS011;10990;48.174;9.782;2023-04-25T14:13:19;0.40;;;0.40;;
21657;SDS011;10990;48.174;9.782;2023-04-25T14:15:46;0.30;;;0.30;;
21657;SDS011;10990;48.174;9.782;2023-04-25T14:18:13;0.60;;;0.60;;
21657;SDS011;10990;48.174;9.782;2023-04-25T14:20:39;0.50;;;0.50;;
21657;SDS011;10990;48.174;9.782;2023-04-25T14:23:06;0.93;;;0.60;;
21657;SDS011;10990;48.174;9.782;2023-04-25T14:25:33;0.80;;;0.80;;
21657;SDS011;10990;48.174;9.782;2023-04-25T14:28:01;0.68;;;0.68;;
21657;SDS011;10990;48.174;9.782;2023-04-25T14:30:30;0.70;;;0.70;;
21657;SDS011;10990;48.174;9.782;2023-04-25T14:32:56;0.60;;;0.60;;
21657;SDS011;10990;48.174;9.782;2023-04-25T14:35:23;0.43;;;0.43;;
21657;SDS011;10990;48.174;9.782;2023-04-25T14:37:50;0.50;;;0.50;;
21657;SDS011;10990;48.174;9.782;2023-04-25T14:40:17;0.60;;;0.60;;
21657;SDS011;10990;48.174;9.782;2023-04-25T14:42:47;1.63;;;0.70;;
21657;SDS011;10990;48.174;9.782;2023-04-25T14:45:14;0.60;;;0.55;;
21657;SDS011;10990;48.174;9.782;2023-04-25T14:47:42;0.70;;;0.70;;
21657;SDS011;10990;48.174;9.782;2023-04-25T14:50:09;0.50;;;0.50;;
21657;SDS011;10990;48.174;9.782;2023-04-25T14:52:36;0.70;;;0.70;;
21657;SDS011;10990;48.174;9.782;2023-04-25T14:55:03;0.70;;;0.70;;
21657;SDS011;10990;48.174;9.782;2023-04-25T14:57:31;0.60;;;0.60;;
21657;SDS011;10990;48.174;9.782;2023-04-25T14:59:58;0.80;;;0.80;;
21657;SDS011;10990;48.174;9.782;2023-04-25T15:02:24;1.27;;;0.70;;
21657;SDS011;10990;48.174;9.782;2023-04-25T15:04:53;0.40;;;0.40;;
21657;SDS011;10990;48.174;9.782;2023-04-25T15:07:20;0.60;;;0.60;;